createdAt,value
2018-06-23T00:00:47.605Z,12.70
2018-06-23T00:05:50.668Z,12.70
2018-06-23T00:11:11.901Z,12.70
2018-06-23T00:16:15.165Z,12.70
2018-06-23T00:21:18.209Z,12.70
2018-06-23T00:26:26.996Z,12.70
2018-06-23T00:31:30.089Z,12.70
2018-06-23T00:36:37.313Z,12.70
2018-06-23T00:41:40.345Z,12.70
2018-06-23T00:46:43.410Z,12.70
2018-06-23T00:51:46.448Z,12.70
2018-06-23T00:56:50.026Z,12.60
2018-06-23T01:01:53.061Z,12.60
2018-06-23T01:06:56.096Z,12.60
2018-06-23T01:12:00.116Z,12.60
2018-06-23T01:17:04.073Z,12.60
2018-06-23T01:22:07.109Z,12.60
2018-06-23T01:27:10.146Z,12.60
2018-06-23T01:32:13.205Z,12.50
2018-06-23T01:37:17.017Z,12.50
2018-06-23T01:42:21.092Z,12.50
2018-06-23T01:47:25.121Z,12.50
2018-06-23T01:52:28.163Z,12.50
2018-06-23T01:57:31.213Z,12.40
2018-06-23T02:02:34.296Z,12.40
2018-06-23T02:07:38.066Z,12.40
2018-06-23T02:12:41.317Z,12.40
2018-06-23T02:17:49.939Z,12.40
2018-06-23T02:24:02.557Z,12.30
2018-06-23T02:29:11.070Z,12.30
2018-06-23T02:34:32.349Z,12.30
2018-06-23T02:39:35.625Z,12.30
2018-06-23T02:44:38.905Z,12.30
2018-06-23T02:49:41.982Z,12.30
2018-06-23T02:54:45.485Z,12.30
2018-06-23T02:59:48.702Z,12.30
2018-06-23T03:04:51.923Z,12.30
2018-06-23T03:09:55.103Z,12.30
2018-06-23T03:14:58.463Z,12.30
2018-06-23T03:20:01.493Z,12.30
2018-06-23T03:25:04.561Z,12.30
2018-06-23T03:30:07.641Z,12.30
2018-06-23T03:35:10.699Z,12.30
2018-06-23T03:40:13.742Z,12.30
2018-06-23T03:50:51.279Z,12.40
2018-06-23T03:55:54.329Z,12.40
2018-06-23T04:01:03.285Z,12.40
2018-06-23T04:06:06.330Z,12.40
2018-06-23T04:11:10.357Z,12.40
2018-06-23T04:16:13.401Z,12.40
2018-06-23T04:21:16.437Z,12.40
2018-06-23T04:26:44.413Z,12.40
2018-06-23T04:31:47.706Z,12.40
2018-06-23T04:37:12.713Z,12.40
2018-06-23T04:42:23.032Z,12.40
2018-06-23T04:47:40.950Z,12.40
2018-06-23T04:52:44.080Z,12.40
2018-06-23T04:57:47.140Z,12.40
2018-06-23T05:02:50.236Z,12.30
2018-06-23T05:07:53.276Z,12.30
2018-06-23T05:12:56.417Z,12.30
2018-06-23T05:18:10.374Z,12.40
2018-06-23T05:23:13.388Z,12.40
2018-06-23T05:28:19.403Z,12.40
2018-06-23T05:33:24.398Z,12.40
2018-06-23T05:38:27.462Z,12.40
2018-06-23T05:43:30.506Z,12.40
2018-06-23T05:48:34.060Z,12.40
2018-06-23T05:53:38.131Z,12.40
2018-06-23T05:58:41.209Z,12.40
2018-06-23T06:03:44.343Z,12.40
2018-06-23T06:09:12.729Z,12.40
2018-06-23T06:20:51.172Z,12.40
2018-06-23T06:26:17.057Z,12.40
2018-06-23T06:31:20.515Z,12.40
2018-06-23T06:36:23.611Z,12.40
2018-06-23T06:41:28.129Z,12.40
2018-06-23T06:46:31.182Z,12.40
2018-06-23T06:51:52.937Z,12.40
2018-06-23T06:56:55.978Z,12.40
2018-06-23T07:01:59.621Z,12.50
2018-06-23T07:07:03.398Z,12.50
2018-06-23T07:12:06.502Z,12.50
2018-06-23T07:17:09.561Z,12.60
2018-06-23T07:22:12.693Z,12.60
2018-06-23T07:27:15.840Z,12.60
2018-06-23T07:32:18.938Z,12.60
2018-06-23T07:37:22.001Z,12.60
2018-06-23T07:42:25.833Z,12.60
2018-06-23T07:47:28.974Z,12.70
2018-06-23T07:52:32.092Z,12.70
2018-06-23T07:57:35.746Z,12.70
2018-06-23T08:02:38.813Z,12.80
2018-06-23T08:07:44.707Z,12.80
2018-06-23T08:12:47.796Z,13.00
2018-06-23T08:22:54.354Z,13.30
2018-06-23T08:28:25.634Z,13.40
2018-06-23T08:33:28.701Z,13.50
2018-06-23T08:38:31.749Z,13.50
2018-06-23T08:43:35.373Z,13.50
2018-06-23T08:48:38.428Z,13.50
2018-06-23T08:53:46.415Z,13.70
2018-06-23T08:58:49.447Z,13.90
2018-06-23T09:03:52.498Z,14.10
2018-06-23T09:09:16.538Z,14.20
2018-06-23T09:14:21.725Z,14.40
2018-06-23T09:19:25.023Z,14.50
2018-06-23T09:29:31.272Z,15.00
2018-06-23T09:34:34.432Z,15.10
2018-06-23T09:39:37.480Z,15.20
2018-06-23T09:44:40.573Z,15.20
2018-06-23T09:49:43.639Z,15.30
2018-06-23T09:54:46.684Z,15.50
2018-06-23T09:59:50.500Z,15.70
2018-06-23T10:09:56.434Z,15.90
2018-06-23T10:14:59.505Z,16.00
2018-06-23T10:20:02.557Z,16.00
2018-06-23T10:25:06.698Z,16.00
2018-06-23T10:30:09.818Z,16.10
2018-06-23T10:35:14.168Z,16.20
2018-06-23T10:40:17.306Z,16.30
2018-06-23T10:50:23.426Z,16.40
2018-06-23T11:00:29.407Z,16.50
2018-06-23T11:05:36.690Z,16.50
2018-06-23T11:10:39.757Z,16.50
2018-06-23T11:15:43.889Z,16.40
2018-06-23T11:20:46.958Z,16.50
2018-06-23T11:25:52.137Z,16.60
2018-06-23T11:30:55.231Z,16.60
2018-06-23T11:41:01.619Z,16.60
2018-06-23T11:46:06.982Z,16.70
2018-06-23T11:51:16.839Z,16.80
2018-06-23T11:56:19.923Z,17.00
2018-06-23T12:01:22.974Z,17.00
2018-06-23T12:06:26.662Z,17.10
2018-06-23T12:11:29.769Z,17.20
2018-06-23T12:16:32.830Z,17.40
2018-06-23T12:21:36.013Z,17.40
2018-06-23T12:26:39.174Z,17.40
2018-06-23T12:31:42.268Z,17.50
2018-06-23T12:36:45.325Z,17.70
2018-06-23T12:41:48.383Z,17.80
2018-06-23T12:46:56.672Z,17.90
2018-06-23T12:51:59.714Z,18.00
2018-06-23T12:57:03.780Z,18.10
2018-06-23T13:02:06.916Z,18.30
2018-06-23T13:07:10.306Z,18.40
2018-06-23T13:12:13.345Z,18.40
2018-06-23T13:17:16.386Z,18.40
2018-06-23T13:22:19.529Z,18.40
2018-06-23T13:27:22.506Z,18.50
2018-06-23T13:32:27.530Z,18.50
2018-06-23T13:37:30.641Z,18.50
2018-06-23T13:42:33.693Z,18.50
2018-06-23T13:47:36.737Z,18.50
2018-06-23T13:52:56.128Z,18.50
2018-06-23T13:57:59.178Z,18.60
2018-06-23T14:03:02.329Z,18.60
2018-06-23T14:08:05.380Z,18.50
2018-06-23T14:13:08.443Z,18.50
2018-06-23T14:18:11.484Z,18.50
2018-06-23T14:23:14.581Z,18.50
2018-06-23T14:28:17.889Z,18.50
2018-06-23T14:33:20.948Z,18.50
2018-06-23T14:38:24.086Z,18.60
2018-06-23T14:43:27.131Z,18.60
2018-06-23T14:48:30.233Z,18.60
2018-06-23T14:53:33.764Z,18.60
2018-06-23T14:58:55.389Z,18.60
2018-06-23T15:03:58.457Z,18.70
2018-06-23T15:09:13.215Z,18.70
2018-06-23T15:14:16.424Z,18.60
2018-06-23T15:19:19.464Z,18.60
2018-06-23T15:24:22.532Z,18.60
2018-06-23T15:29:25.920Z,18.70
2018-06-23T15:34:33.486Z,18.90
2018-06-23T15:39:36.944Z,19.00
2018-06-23T15:44:40.517Z,19.00
2018-06-23T15:49:43.552Z,19.00
2018-06-23T15:54:46.722Z,18.90
2018-06-23T15:59:49.794Z,18.90
2018-06-23T16:04:52.846Z,18.90
2018-06-23T16:09:55.990Z,18.90
2018-06-23T16:14:59.047Z,18.90
2018-06-23T16:20:02.194Z,18.90
2018-06-23T16:25:05.593Z,18.90
2018-06-23T16:30:08.769Z,18.90
2018-06-23T16:35:12.095Z,18.90
2018-06-23T16:40:14.873Z,18.90
2018-06-23T16:45:17.907Z,18.90
2018-06-23T16:50:20.977Z,18.90
2018-06-23T16:55:24.039Z,18.80
2018-06-23T17:00:27.140Z,18.70
2018-06-23T17:05:30.205Z,18.60
2018-06-23T17:10:33.294Z,18.60
2018-06-23T17:15:36.320Z,18.50
2018-06-23T17:20:39.640Z,18.40
2018-06-23T17:25:43.600Z,18.40
2018-06-23T17:30:46.628Z,18.40
2018-06-23T17:35:58.800Z,18.30
2018-06-23T17:41:04.020Z,18.30
2018-06-23T17:46:07.053Z,18.30
2018-06-23T17:51:10.124Z,18.10
2018-06-23T17:56:30.990Z,18.00
2018-06-23T18:01:34.769Z,18.00
2018-06-23T18:06:37.817Z,17.90
2018-06-23T18:11:40.853Z,17.80
2018-06-23T18:16:43.924Z,17.70
2018-06-23T18:21:47.081Z,17.70
2018-06-23T18:26:50.345Z,17.60
2018-06-23T18:31:53.369Z,17.50
2018-06-23T18:36:56.404Z,17.40
2018-06-23T18:41:59.538Z,17.40
2018-06-23T18:47:02.585Z,17.30
2018-06-23T18:52:06.313Z,17.30
2018-06-23T18:57:09.440Z,17.20
2018-06-23T19:02:12.545Z,17.20
2018-06-23T19:07:15.597Z,17.10
2018-06-23T19:12:18.644Z,17.10
2018-06-23T19:17:21.803Z,17.00
2018-06-23T19:22:24.833Z,16.90
2018-06-23T19:27:27.868Z,16.90
2018-06-23T19:32:30.917Z,16.90
2018-06-23T19:38:08.550Z,16.90
2018-06-23T19:43:11.629Z,16.90
2018-06-23T19:48:14.689Z,16.80
2018-06-23T19:53:25.587Z,16.80
2018-06-23T19:58:28.604Z,16.80
2018-06-23T20:03:32.389Z,16.70
2018-06-23T20:08:35.422Z,16.70
2018-06-23T20:13:38.464Z,16.70
2018-06-23T20:18:42.198Z,16.70
2018-06-23T20:23:45.470Z,16.60
2018-06-23T20:28:48.905Z,16.50
2018-06-23T20:33:52.093Z,16.40
2018-06-23T20:38:55.319Z,16.30
2018-06-23T20:43:58.416Z,16.20
2018-06-23T20:49:01.469Z,16.20
2018-06-23T20:54:04.554Z,16.10
2018-06-23T20:59:20.886Z,16.00
2018-06-23T21:04:24.834Z,16.20
2018-06-23T21:09:27.986Z,16.10
2018-06-23T21:14:31.034Z,16.00
2018-06-23T21:19:40.609Z,16.00
2018-06-23T21:29:46.693Z,15.90
2018-06-23T21:34:50.302Z,15.80
2018-06-23T21:39:53.389Z,15.60
2018-06-23T21:44:56.568Z,15.50
2018-06-23T21:49:59.610Z,15.40
2018-06-23T21:55:04.436Z,15.30
2018-06-23T22:00:21.029Z,15.30
2018-06-23T22:05:24.068Z,15.20
2018-06-23T22:10:27.781Z,15.00
2018-06-23T22:15:30.820Z,14.90
2018-06-23T22:20:33.944Z,14.70
2018-06-23T22:25:36.993Z,14.60
2018-06-23T22:30:40.045Z,14.40
2018-06-23T22:35:43.100Z,14.20
2018-06-23T22:40:46.143Z,14.10
2018-06-23T22:45:49.181Z,14.10
2018-06-23T22:55:55.168Z,13.80
2018-06-23T23:00:58.218Z,13.70
2018-06-23T23:06:02.203Z,13.70
2018-06-23T23:11:05.500Z,13.60
2018-06-23T23:16:08.549Z,13.50
2018-06-23T23:21:11.596Z,13.40
2018-06-23T23:26:14.705Z,13.40
2018-06-23T23:31:17.753Z,13.30
2018-06-23T23:36:20.802Z,13.10
2018-06-23T23:41:23.861Z,13.00
2018-06-23T23:46:26.908Z,12.80
2018-06-23T23:51:29.952Z,12.60
2018-06-23T23:56:33.069Z,12.40
